createdAt,value
2022-11-18T00:01:34.930Z,5.53
2022-11-18T00:04:01.637Z,5.07
2022-11-18T00:06:29.826Z,5.80
2022-11-18T00:08:57.781Z,4.80
2022-11-18T00:11:44.748Z,3.93
2022-11-18T00:14:20.817Z,3.53
2022-11-18T00:16:49.400Z,3.80
2022-11-18T00:19:16.135Z,4.27
2022-11-18T00:21:42.749Z,4.20
2022-11-18T00:24:09.797Z,7.57
2022-11-18T00:26:36.417Z,4.93
2022-11-18T00:29:04.707Z,3.83
2022-11-18T00:31:31.089Z,4.53
2022-11-18T00:33:57.495Z,4.80
2022-11-18T00:36:23.935Z,4.37
2022-11-18T00:38:50.267Z,5.23
2022-11-18T00:41:16.644Z,5.63
2022-11-18T00:43:43.040Z,10.33
2022-11-18T00:46:11.374Z,4.97
2022-11-18T00:48:38.728Z,4.77
2022-11-18T00:51:13.457Z,4.80
2022-11-18T00:53:39.813Z,5.27
2022-11-18T00:56:07.149Z,4.87
2022-11-18T00:58:34.423Z,5.97
2022-11-18T01:01:00.846Z,5.07
2022-11-18T01:03:28.102Z,4.43
2022-11-18T01:05:54.524Z,6.23
2022-11-18T01:08:21.558Z,4.83
2022-11-18T01:10:49.422Z,8.00
2022-11-18T01:13:21.040Z,4.47
2022-11-18T01:15:51.387Z,4.03
2022-11-18T01:18:19.570Z,4.33
2022-11-18T01:20:46.735Z,4.90
2022-11-18T01:23:14.207Z,5.23
2022-11-18T01:25:42.371Z,7.10
2022-11-18T01:28:09.008Z,3.87
2022-11-18T01:30:37.995Z,4.23
2022-11-18T01:33:05.520Z,4.30
2022-11-18T01:35:39.566Z,9.50
2022-11-18T01:38:06.495Z,3.83
2022-11-18T01:40:33.931Z,3.17
2022-11-18T01:43:00.424Z,3.70
2022-11-18T01:45:34.064Z,3.60
2022-11-18T01:48:16.410Z,3.67
2022-11-18T01:50:52.020Z,4.10
2022-11-18T01:53:24.572Z,3.43
2022-11-18T01:55:54.316Z,3.20
2022-11-18T01:58:27.433Z,3.43
2022-11-18T02:00:54.136Z,3.57
2022-11-18T02:03:21.988Z,4.40
2022-11-18T02:05:52.310Z,4.03
2022-11-18T02:08:19.467Z,4.83
2022-11-18T02:10:46.164Z,4.27
2022-11-18T02:13:13.193Z,4.30
2022-11-18T02:16:03.414Z,3.70
2022-11-18T02:18:46.470Z,4.73
2022-11-18T02:22:00.430Z,4.00
2022-11-18T02:24:40.374Z,4.00
2022-11-18T02:27:43.272Z,4.50
2022-11-18T02:30:12.410Z,3.80
2022-11-18T02:32:43.318Z,4.40
2022-11-18T02:35:16.893Z,4.60
2022-11-18T02:37:54.427Z,3.93
2022-11-18T02:40:53.804Z,6.10
2022-11-18T02:43:26.715Z,4.47
2022-11-18T02:45:59.428Z,4.50
2022-11-18T02:48:29.799Z,4.00
2022-11-18T02:50:58.171Z,9.53
2022-11-18T02:53:27.695Z,6.30
2022-11-18T02:55:55.298Z,6.43
2022-11-18T02:58:23.369Z,5.50
2022-11-18T03:00:59.248Z,5.47
2022-11-18T03:03:36.257Z,4.93
2022-11-18T03:06:21.762Z,4.53
2022-11-18T03:09:16.468Z,3.50
2022-11-18T03:11:49.012Z,4.00
2022-11-18T03:14:31.773Z,5.30
2022-11-18T03:17:01.177Z,4.17
2022-11-18T03:19:40.517Z,3.63
2022-11-18T03:22:32.838Z,6.73
2022-11-18T03:25:10.583Z,4.23
2022-11-18T03:28:00.554Z,3.97
2022-11-18T03:30:30.441Z,5.90
2022-11-18T03:33:02.407Z,3.80
2022-11-18T03:35:32.896Z,4.90
2022-11-18T03:38:11.097Z,4.40
2022-11-18T03:40:40.436Z,3.93
2022-11-18T03:43:13.694Z,9.97
2022-11-18T03:45:52.974Z,5.23
2022-11-18T03:48:25.201Z,4.73
2022-11-18T03:50:57.683Z,4.20
2022-11-18T03:53:27.804Z,3.73
2022-11-18T03:56:02.215Z,5.13
2022-11-18T03:58:53.787Z,3.60
2022-11-18T04:01:48.075Z,4.53
2022-11-18T04:04:14.773Z,4.00
2022-11-18T04:07:15.266Z,3.67
2022-11-18T04:09:47.523Z,3.40
2022-11-18T04:12:18.013Z,3.40
2022-11-18T04:14:47.913Z,3.50
2022-11-18T04:17:17.446Z,4.00
2022-11-18T04:19:43.971Z,4.73
2022-11-18T04:22:10.739Z,4.77
2022-11-18T04:24:37.606Z,4.53
2022-11-18T04:27:05.175Z,4.57
2022-11-18T04:29:32.514Z,3.53
2022-11-18T04:32:00.270Z,4.17
2022-11-18T04:34:27.013Z,3.87
2022-11-18T04:36:53.710Z,5.00
2022-11-18T04:39:20.454Z,3.60
2022-11-18T04:41:55.511Z,4.90
2022-11-18T04:44:23.780Z,4.40
2022-11-18T04:46:50.555Z,4.63
2022-11-18T04:49:17.201Z,3.73
2022-11-18T04:51:44.570Z,5.00
2022-11-18T04:54:11.643Z,5.93
2022-11-18T04:56:38.954Z,6.10
2022-11-18T04:59:06.395Z,4.63
2022-11-18T05:01:32.909Z,5.40
2022-11-18T05:04:03.713Z,4.43
2022-11-18T05:06:31.119Z,5.17
2022-11-18T05:08:58.490Z,4.60
2022-11-18T05:11:44.123Z,5.17
2022-11-18T05:14:10.975Z,5.27
2022-11-18T05:16:37.475Z,5.63
2022-11-18T05:19:06.982Z,5.70
2022-11-18T05:21:33.720Z,4.83
2022-11-18T05:24:01.044Z,5.37
2022-11-18T05:26:27.817Z,9.23
2022-11-18T05:28:54.679Z,6.10
2022-11-18T05:31:21.164Z,6.43
2022-11-18T05:33:47.514Z,5.40
2022-11-18T05:36:17.175Z,6.57
2022-11-18T05:38:44.278Z,5.97
2022-11-18T05:41:31.331Z,6.07
2022-11-18T05:43:58.287Z,5.47
2022-11-18T05:46:25.081Z,4.77
2022-11-18T05:48:51.459Z,5.13
2022-11-18T05:51:17.806Z,5.80
2022-11-18T05:53:44.384Z,6.40
2022-11-18T05:56:16.438Z,4.30
2022-11-18T05:58:42.833Z,5.37
2022-11-18T06:01:10.497Z,4.40
2022-11-18T06:03:39.765Z,5.43
2022-11-18T06:06:08.564Z,5.00
2022-11-18T06:08:39.182Z,4.57
2022-11-18T06:11:08.037Z,5.30
2022-11-18T06:13:50.253Z,4.80
2022-11-18T06:16:20.813Z,5.90
2022-11-18T06:18:47.240Z,4.67
2022-11-18T06:21:13.701Z,5.73
2022-11-18T06:23:42.050Z,7.17
2022-11-18T06:26:09.363Z,4.60
2022-11-18T06:28:36.633Z,3.93
2022-11-18T06:31:02.998Z,4.63
2022-11-18T06:33:29.333Z,5.10
2022-11-18T06:35:55.691Z,5.67
2022-11-18T06:38:24.947Z,4.87
2022-11-18T06:40:51.919Z,5.33
2022-11-18T06:43:36.784Z,5.53
2022-11-18T06:46:23.247Z,5.50
2022-11-18T06:48:49.774Z,5.87
2022-11-18T06:51:16.613Z,5.17
2022-11-18T06:53:43.031Z,5.47
2022-11-18T06:56:12.575Z,6.80
2022-11-18T06:58:39.449Z,12.40
2022-11-18T07:01:11.329Z,6.27
2022-11-18T07:03:39.463Z,5.43
2022-11-18T07:06:06.914Z,6.67
2022-11-18T07:08:35.809Z,6.03
2022-11-18T07:11:02.525Z,6.03
2022-11-18T07:13:28.966Z,6.23
2022-11-18T07:15:55.310Z,7.10
2022-11-18T07:18:21.708Z,7.83
2022-11-18T07:20:48.402Z,7.70
2022-11-18T07:23:14.790Z,9.83
2022-11-18T07:25:45.119Z,7.77
2022-11-18T07:28:11.787Z,6.37
2022-11-18T07:30:38.145Z,6.53
2022-11-18T07:33:04.496Z,5.37
2022-11-18T07:35:30.857Z,5.17
2022-11-18T07:37:57.191Z,6.03
2022-11-18T07:40:23.552Z,9.93
2022-11-18T07:42:49.918Z,5.00
2022-11-18T07:45:23.540Z,5.17
2022-11-18T07:47:49.930Z,4.87
2022-11-18T07:50:17.299Z,5.33
2022-11-18T07:52:44.083Z,4.83
2022-11-18T07:55:10.692Z,5.03
2022-11-18T07:57:37.065Z,4.50
2022-11-18T08:00:04.587Z,4.43
2022-11-18T08:02:38.434Z,5.07
2022-11-18T08:05:05.244Z,4.77
2022-11-18T08:07:31.814Z,4.13
2022-11-18T08:09:58.258Z,4.80
2022-11-18T08:12:24.606Z,9.87
2022-11-18T08:14:50.969Z,12.43
2022-11-18T08:17:17.302Z,10.70
2022-11-18T08:19:43.663Z,9.50
2022-11-18T08:22:10.033Z,8.77
2022-11-18T08:24:36.435Z,7.60
2022-11-18T08:27:02.782Z,14.00
2022-11-18T08:29:29.452Z,7.23
2022-11-18T08:31:56.100Z,9.23
2022-11-18T08:34:22.527Z,8.70
2022-11-18T08:36:48.882Z,12.87
2022-11-18T08:39:15.408Z,7.83
2022-11-18T08:41:43.498Z,12.17
2022-11-18T08:44:12.455Z,9.63
2022-11-18T08:46:39.090Z,6.70
2022-11-18T08:49:05.494Z,6.73
2022-11-18T08:51:31.973Z,6.77
2022-11-18T08:53:58.459Z,6.60
2022-11-18T08:56:25.346Z,6.33
2022-11-18T08:58:52.516Z,7.63
2022-11-18T09:01:19.015Z,6.43
2022-11-18T09:03:45.610Z,6.07
2022-11-18T09:06:20.559Z,4.97
2022-11-18T09:08:47.293Z,5.47
2022-11-18T09:11:16.230Z,6.43
2022-11-18T09:14:14.275Z,7.37
2022-11-18T09:16:31.670Z,9.77
2022-11-18T09:19:04.823Z,6.70
2022-11-18T09:21:40.952Z,6.20
2022-11-18T09:24:08.365Z,6.53
2022-11-18T09:26:35.271Z,6.13
2022-11-18T09:29:01.616Z,6.30
2022-11-18T09:31:27.983Z,6.23
2022-11-18T09:33:54.346Z,6.83
2022-11-18T09:36:23.502Z,9.13
2022-11-18T09:38:53.265Z,6.87
2022-11-18T09:41:36.247Z,6.87
2022-11-18T09:44:35.730Z,11.87
2022-11-18T09:47:04.831Z,13.67
2022-11-18T09:49:37.653Z,11.00
2022-11-18T09:52:10.911Z,7.73
2022-11-18T09:54:38.505Z,9.43
2022-11-18T09:57:25.107Z,7.03
2022-11-18T09:59:52.270Z,7.03
2022-11-18T10:02:27.650Z,9.60
2022-11-18T10:04:56.966Z,8.57
2022-11-18T10:07:38.353Z,9.33
2022-11-18T10:10:15.059Z,8.63
2022-11-18T10:12:52.355Z,7.47
2022-11-18T10:15:37.295Z,6.57
2022-11-18T10:18:52.884Z,10.00
2022-11-18T10:21:45.856Z,10.50
2022-11-18T10:24:23.433Z,11.20
2022-11-18T10:26:56.315Z,7.20
2022-11-18T10:29:23.653Z,9.97
2022-11-18T10:32:06.041Z,8.50
2022-11-18T10:34:34.527Z,11.53
2022-11-18T10:37:07.842Z,10.90
2022-11-18T10:39:47.314Z,9.47
2022-11-18T10:42:25.115Z,8.60
2022-11-18T10:44:51.474Z,15.60
2022-11-18T10:47:32.749Z,9.30
2022-11-18T10:50:01.350Z,14.37
2022-11-18T10:52:29.884Z,8.53
2022-11-18T10:55:29.092Z,20.50
2022-11-18T10:58:00.132Z,16.53
2022-11-18T11:00:41.256Z,13.93
2022-11-18T11:03:28.810Z,8.07
2022-11-18T11:06:26.554Z,6.97
2022-11-18T11:08:56.148Z,7.57
2022-11-18T11:11:32.614Z,6.93
2022-11-18T11:14:27.693Z,7.23
2022-11-18T11:17:07.013Z,9.50
2022-11-18T11:19:40.738Z,8.33
2022-11-18T11:22:12.036Z,8.40
2022-11-18T11:24:38.856Z,9.23
2022-11-18T11:30:18.769Z,8.43
2022-11-18T11:33:03.807Z,14.07
2022-11-18T11:35:38.415Z,19.47
2022-11-18T11:38:17.980Z,9.10
2022-11-18T11:40:56.157Z,8.50
2022-11-18T11:43:32.125Z,9.30
2022-11-18T11:46:15.354Z,9.70
2022-11-18T11:48:50.659Z,11.17
2022-11-18T11:51:28.777Z,16.60
2022-11-18T11:54:23.611Z,9.30
2022-11-18T11:57:03.844Z,8.47
2022-11-18T11:59:48.990Z,9.97
2022-11-18T12:02:27.578Z,11.33
2022-11-18T12:05:16.462Z,9.50
2022-11-18T12:07:49.653Z,9.40
2022-11-18T12:10:31.524Z,11.63
2022-11-18T12:13:19.775Z,7.57
2022-11-18T12:16:08.081Z,11.17
2022-11-18T12:18:40.452Z,8.17
2022-11-18T12:21:06.867Z,9.90
2022-11-18T12:23:34.112Z,9.10
2022-11-18T12:26:08.552Z,14.77
2022-11-18T12:28:42.678Z,8.37
2022-11-18T12:31:18.285Z,8.70
2022-11-18T12:33:52.403Z,6.87
2022-11-18T12:36:26.987Z,7.13
2022-11-18T12:38:54.399Z,7.43
2022-11-18T12:42:00.388Z,11.63
2022-11-18T12:44:29.164Z,7.73
2022-11-18T12:46:59.533Z,12.07
2022-11-18T12:49:25.837Z,8.03
2022-11-18T12:52:03.115Z,8.10
2022-11-18T12:54:33.457Z,6.67
2022-11-18T12:57:13.123Z,5.83
2022-11-18T12:59:39.523Z,6.23
2022-11-18T13:02:11.850Z,6.40
2022-11-18T13:04:44.989Z,9.00
2022-11-18T13:07:45.997Z,8.43
2022-11-18T13:10:23.338Z,14.30
2022-11-18T13:12:52.177Z,5.80
2022-11-18T13:15:37.437Z,6.33
2022-11-18T13:18:12.929Z,9.97
2022-11-18T13:20:41.638Z,6.23
2022-11-18T13:23:35.538Z,10.43
2022-11-18T13:26:07.801Z,7.20
2022-11-18T13:28:55.974Z,6.43
2022-11-18T13:31:25.297Z,6.33
2022-11-18T13:33:52.192Z,6.80
2022-11-18T13:36:24.786Z,6.93
2022-11-18T13:39:03.336Z,7.13
2022-11-18T13:41:34.336Z,6.30
2022-11-18T13:44:16.497Z,7.07
2022-11-18T13:46:44.295Z,5.83
2022-11-18T13:49:17.147Z,7.10
2022-11-18T13:51:43.909Z,5.70
2022-11-18T13:54:25.069Z,8.23
2022-11-18T13:56:52.529Z,5.57
2022-11-18T13:59:22.149Z,6.03
2022-11-18T14:01:54.735Z,5.63
2022-11-18T14:04:27.216Z,6.07
2022-11-18T14:06:53.667Z,7.40
2022-11-18T14:09:28.957Z,7.80
2022-11-18T14:12:23.742Z,7.93
2022-11-18T14:14:50.345Z,12.70
2022-11-18T14:17:18.923Z,5.93
2022-11-18T14:19:47.867Z,5.23
2022-11-18T14:22:20.391Z,4.70
2022-11-18T14:24:58.418Z,4.87
2022-11-18T14:27:39.505Z,4.90
2022-11-18T14:30:29.769Z,6.47
2022-11-18T14:33:20.578Z,10.60
2022-11-18T14:35:56.830Z,7.77
2022-11-18T14:41:44.440Z,5.30
2022-11-18T14:44:13.135Z,4.13
2022-11-18T14:46:41.183Z,4.20
2022-11-18T14:49:14.286Z,4.43
2022-11-18T14:51:40.810Z,6.80
2022-11-18T14:54:07.139Z,6.67
2022-11-18T14:56:37.168Z,9.60
2022-11-18T14:59:03.518Z,6.37
2022-11-18T15:01:30.933Z,10.40
2022-11-18T15:03:57.907Z,10.83
2022-11-18T15:06:24.692Z,6.80
2022-11-18T15:08:52.890Z,11.23
2022-11-18T15:11:19.812Z,7.13
2022-11-18T15:13:46.440Z,5.83
2022-11-18T15:16:21.928Z,5.50
2022-11-18T15:18:51.276Z,6.63
2022-11-18T15:21:17.946Z,5.87
2022-11-18T15:23:45.294Z,6.27
2022-11-18T15:26:21.708Z,9.43
2022-11-18T15:28:49.537Z,5.40
2022-11-18T15:31:16.605Z,7.30
2022-11-18T15:33:43.841Z,5.87
2022-11-18T15:36:17.824Z,5.40
2022-11-18T15:38:44.865Z,5.60
2022-11-18T15:41:31.175Z,6.30
2022-11-18T15:43:59.897Z,5.83
2022-11-18T15:46:27.886Z,6.57
2022-11-18T15:48:56.298Z,10.40
2022-11-18T15:51:24.088Z,8.47
2022-11-18T15:53:50.648Z,8.20
2022-11-18T15:56:27.050Z,9.13
2022-11-18T15:59:10.292Z,7.27
2022-11-18T16:01:39.191Z,12.03
2022-11-18T16:04:08.033Z,9.47
2022-11-18T16:06:34.942Z,10.23
2022-11-18T16:09:01.456Z,6.97
2022-11-18T16:11:49.168Z,10.03
2022-11-18T16:14:18.413Z,6.93
2022-11-18T16:16:47.187Z,8.50
2022-11-18T16:19:16.945Z,6.80
2022-11-18T16:21:48.421Z,9.33
2022-11-18T16:24:19.161Z,7.70
2022-11-18T16:26:45.711Z,7.53
2022-11-18T16:29:13.127Z,15.30
2022-11-18T16:31:39.791Z,13.70
2022-11-18T16:34:08.743Z,7.73
2022-11-18T16:36:36.353Z,7.17
2022-11-18T16:39:26.015Z,14.50
2022-11-18T16:41:55.660Z,7.13
2022-11-18T16:44:22.073Z,5.37
2022-11-18T16:46:50.733Z,6.07
2022-11-18T16:49:19.439Z,9.50
2022-11-18T16:51:49.050Z,11.17
2022-11-18T16:54:20.253Z,11.17
2022-11-18T16:56:47.871Z,11.53
2022-11-18T16:59:21.585Z,13.77
2022-11-18T17:01:49.693Z,15.17
2022-11-18T17:04:16.261Z,18.10
2022-11-18T17:06:42.823Z,18.70
2022-11-18T17:09:14.094Z,15.57
2022-11-18T17:11:40.702Z,17.43
2022-11-18T17:14:07.109Z,24.73
2022-11-18T17:16:33.545Z,16.63
2022-11-18T17:19:00.620Z,20.53
2022-11-18T17:21:29.019Z,17.50
2022-11-18T17:23:55.702Z,17.40
2022-11-18T17:26:25.268Z,18.00
2022-11-18T17:28:51.842Z,21.17
2022-11-18T17:31:20.797Z,17.90
2022-11-18T17:33:48.481Z,24.10
2022-11-18T17:36:17.454Z,20.30
2022-11-18T17:38:47.061Z,21.83
2022-11-18T17:41:33.610Z,20.13
2022-11-18T17:44:01.848Z,22.40
2022-11-18T17:46:33.425Z,21.70
2022-11-18T17:49:04.564Z,24.40
2022-11-18T17:51:31.644Z,17.63
2022-11-18T17:53:58.393Z,14.53
2022-11-18T17:56:24.947Z,14.53
2022-11-18T17:58:52.562Z,15.77
2022-11-18T18:01:20.860Z,13.20
2022-11-18T18:03:47.708Z,12.97
2022-11-18T18:06:14.712Z,12.80
2022-11-18T18:08:41.493Z,12.53
2022-11-18T18:11:12.346Z,12.83
2022-11-18T18:14:14.475Z,13.17
2022-11-18T18:16:46.199Z,13.30
2022-11-18T18:19:15.357Z,12.90
2022-11-18T18:21:41.872Z,12.90
2022-11-18T18:24:09.193Z,15.17
2022-11-18T18:26:36.072Z,14.70
2022-11-18T18:29:03.433Z,15.93
2022-11-18T18:31:33.860Z,16.97
2022-11-18T18:34:00.958Z,25.07
2022-11-18T18:36:27.618Z,15.30
2022-11-18T18:38:53.937Z,16.97
2022-11-18T18:41:22.273Z,22.80
2022-11-18T18:43:49.837Z,18.93
2022-11-18T18:46:33.955Z,23.50
2022-11-18T18:49:08.696Z,20.30
2022-11-18T18:51:40.032Z,20.13
2022-11-18T18:54:08.036Z,18.27
2022-11-18T18:56:35.010Z,24.60
2022-11-18T18:59:04.386Z,25.80
2022-11-18T19:01:30.879Z,29.70
2022-11-18T19:03:59.505Z,25.70
2022-11-18T19:09:19.035Z,21.97
2022-11-18T19:12:04.224Z,24.93
2022-11-18T19:14:33.298Z,28.10
2022-11-18T19:17:09.586Z,25.63
2022-11-18T19:19:57.008Z,25.70
2022-11-18T19:22:23.999Z,25.40
2022-11-18T19:24:51.119Z,26.33
2022-11-18T19:27:19.081Z,30.90
2022-11-18T19:29:45.457Z,26.13
2022-11-18T19:32:12.099Z,29.63
2022-11-18T19:34:38.699Z,21.17
2022-11-18T19:37:05.155Z,21.87
2022-11-18T19:39:31.800Z,20.97
2022-11-18T19:41:58.658Z,22.50
2022-11-18T19:44:25.042Z,25.93
2022-11-18T19:46:52.877Z,19.63
2022-11-18T19:49:19.368Z,27.87
2022-11-18T19:51:45.960Z,25.60
2022-11-18T19:54:12.280Z,30.30
2022-11-18T19:56:38.822Z,26.60
2022-11-18T19:59:05.181Z,34.10
2022-11-18T20:01:31.652Z,32.03
2022-11-18T20:04:01.619Z,28.90
2022-11-18T20:06:28.227Z,31.63
2022-11-18T20:08:55.802Z,38.53
2022-11-18T20:11:23.238Z,25.73
2022-11-18T20:13:49.696Z,30.87
2022-11-18T20:16:18.615Z,28.23
2022-11-18T20:18:49.292Z,26.03
2022-11-18T20:21:20.069Z,31.53
2022-11-18T20:23:47.867Z,24.80
2022-11-18T20:26:16.548Z,35.07
2022-11-18T20:28:44.566Z,32.07
2022-11-18T20:31:15.632Z,34.17
2022-11-18T20:33:48.280Z,30.67
2022-11-18T20:36:17.858Z,32.57
2022-11-18T20:38:49.030Z,31.67
2022-11-18T20:41:15.558Z,29.43
2022-11-18T20:43:43.882Z,30.77
2022-11-18T20:46:14.574Z,31.20
2022-11-18T20:48:43.660Z,28.10
2022-11-18T20:51:12.731Z,27.67
2022-11-18T20:53:41.948Z,26.57
2022-11-18T20:56:10.078Z,27.73
2022-11-18T20:58:36.468Z,25.97
2022-11-18T21:01:17.152Z,31.17
2022-11-18T21:03:48.976Z,26.37
2022-11-18T21:06:15.609Z,28.70
2022-11-18T21:08:42.373Z,24.80
2022-11-18T21:11:11.165Z,27.63
2022-11-18T21:13:56.473Z,27.77
2022-11-18T21:16:23.800Z,31.70
2022-11-18T21:18:50.333Z,28.60
2022-11-18T21:21:35.376Z,27.80
2022-11-18T21:24:02.784Z,28.10
2022-11-18T21:26:31.624Z,30.73
2022-11-18T21:29:00.052Z,25.33
2022-11-18T21:31:27.671Z,29.80
2022-11-18T21:33:54.481Z,24.50
2022-11-18T21:36:22.812Z,18.90
2022-11-18T21:38:49.206Z,20.63
2022-11-18T21:41:15.830Z,19.57
2022-11-18T21:46:29.189Z,22.50
2022-11-18T21:48:59.901Z,17.43
2022-11-18T21:51:27.091Z,22.50
2022-11-18T21:53:53.585Z,21.53
2022-11-18T21:56:22.620Z,18.93
2022-11-18T21:58:50.027Z,16.60
2022-11-18T22:01:21.523Z,21.27
2022-11-18T22:03:55.473Z,24.70
2022-11-18T22:06:24.459Z,18.27
2022-11-18T22:08:51.929Z,15.63
2022-11-18T22:11:20.180Z,18.77
2022-11-18T22:13:46.560Z,18.93
2022-11-18T22:16:15.662Z,16.60
2022-11-18T22:18:44.562Z,17.70
2022-11-18T22:21:17.528Z,15.50
2022-11-18T22:23:44.023Z,14.97
2022-11-18T22:26:21.138Z,15.33
2022-11-18T22:28:52.365Z,28.13
2022-11-18T22:31:20.422Z,15.47
2022-11-18T22:33:47.506Z,14.80
2022-11-18T22:36:16.396Z,18.10
2022-11-18T22:38:43.877Z,13.27
2022-11-18T22:41:31.651Z,18.43
2022-11-18T22:44:00.382Z,14.67
2022-11-18T22:46:30.391Z,25.00
2022-11-18T22:48:57.709Z,16.23
2022-11-18T22:51:24.396Z,18.40
2022-11-18T22:54:04.336Z,15.20
2022-11-18T22:56:37.397Z,15.40
2022-11-18T22:59:04.193Z,18.10
2022-11-18T23:01:30.596Z,17.93
2022-11-18T23:03:56.980Z,16.10
2022-11-18T23:06:23.315Z,19.23
2022-11-18T23:08:49.636Z,16.77
2022-11-18T23:11:44.903Z,17.20
2022-11-18T23:14:12.047Z,16.03
2022-11-18T23:16:40.449Z,14.40
2022-11-18T23:19:09.335Z,11.90
2022-11-18T23:21:36.064Z,12.83
2022-11-18T23:24:03.480Z,15.60
2022-11-18T23:26:30.311Z,13.27
2022-11-18T23:28:56.757Z,13.43
2022-11-18T23:31:25.169Z,19.27
2022-11-18T23:33:52.869Z,13.20
2022-11-18T23:36:20.189Z,12.80
2022-11-18T23:38:47.669Z,12.50
2022-11-18T23:41:16.282Z,11.97
2022-11-18T23:43:43.003Z,13.83
2022-11-18T23:46:09.722Z,13.37
2022-11-18T23:48:38.417Z,18.37
2022-11-18T23:51:16.582Z,12.77
2022-11-18T23:53:43.441Z,15.77
2022-11-18T23:56:18.013Z,12.63
2022-11-18T23:58:46.727Z,14.67
